Time;durP1;ratioP1;P1;durP2;ratioP2;P2;SDS_P1;SDS_P2;PMS_P1;PMS_P2;Temp;Humidity;BMP_temperature;BMP_pressure;BME280_temperature;BME280_humidity;BME280_pressure;Samples;Min_cycle;Max_cycle;Signal;HPM_P1;HPM_P2
2021/10/06 00:02:45;;;;;;;2.07;1.00;;;10.20;99.90;;;;;;5010122;28;20763;-84
2021/10/06 00:05:23;;;;;;;1.90;1.20;;;10.20;99.90;;;;;;5011542;28;21021;-84
2021/10/06 00:08:08;;;;;;;1.00;1.00;;;10.30;99.90;;;;;;5018549;28;20747;-84
2021/10/06 00:10:44;;;;;;;1.80;1.43;;;10.30;99.90;;;;;;5009506;28;20607;-84
2021/10/06 00:13:20;;;;;;;1.23;1.10;;;10.40;99.90;;;;;;5020579;28;21039;-84
2021/10/06 00:16:10;;;;;;;2.10;1.40;;;10.30;99.90;;;;;;5028501;28;20623;-84
2021/10/06 00:18:57;;;;;;;2.17;1.13;;;10.00;99.90;;;;;;5013894;28;20631;-84
2021/10/06 00:21:44;;;;;;;3.80;1.27;;;10.00;99.90;;;;;;5021498;28;20750;-84
2021/10/06 00:24:31;;;;;;;1.20;0.77;;;9.90;99.90;;;;;;5016769;28;20663;-84
2021/10/06 00:27:07;;;;;;;1.03;0.93;;;9.90;99.90;;;;;;5010214;28;20667;-83
2021/10/06 00:29:55;;;;;;;2.40;1.40;;;9.90;99.90;;;;;;5021476;28;20628;-84
2021/10/06 00:32:42;;;;;;;1.67;0.70;;;9.90;99.90;;;;;;5023136;28;20655;-84
2021/10/06 00:35:29;;;;;;;1.27;1.13;;;9.80;99.90;;;;;;5025227;27;21070;-84
2021/10/06 00:38:02;;;;;;;2.13;1.53;;;9.70;99.90;;;;;;5017412;28;20623;-84
2021/10/06 00:40:49;;;;;;;2.00;1.10;;;9.70;99.90;;;;;;5021021;28;20711;-83
2021/10/06 00:43:26;;;;;;;2.80;1.77;;;9.70;99.90;;;;;;5018573;28;20634;-84
2021/10/06 00:46:14;;;;;;;2.53;1.53;;;9.80;99.90;;;;;;5017511;28;21267;-84
2021/10/06 00:48:54;;;;;;;2.23;2.03;;;9.80;99.90;;;;;;5009507;28;20701;-84
2021/10/06 00:51:42;;;;;;;12.03;1.83;;;9.90;99.90;;;;;;5007736;28;20724;-83
2021/10/06 00:54:28;;;;;;;2.70;1.90;;;9.80;99.90;;;;;;5008888;28;20620;-84
2021/10/06 00:57:03;;;;;;;3.33;2.00;;;9.80;99.90;;;;;;5008940;28;21430;-84
2021/10/06 00:59:41;;;;;;;1.87;1.57;;;9.80;99.90;;;;;;5025916;28;20668;-84
2021/10/06 01:02:29;;;;;;;6.07;1.43;;;9.80;99.90;;;;;;5039207;27;20730;-83
2021/10/06 01:05:17;;;;;;;1.30;1.20;;;9.80;99.90;;;;;;5014725;28;20663;-83
2021/10/06 01:07:53;;;;;;;2.20;1.43;;;9.80;99.90;;;;;;5008833;28;20632;-84
2021/10/06 01:10:40;;;;;;;1.30;1.10;;;9.80;99.90;;;;;;5008175;28;21263;-83
2021/10/06 01:13:19;;;;;;;1.93;0.83;;;9.80;99.90;;;;;;5020072;28;21250;-83
2021/10/06 01:15:53;;;;;;;2.03;1.13;;;9.80;99.90;;;;;;5008537;28;20647;-83
2021/10/06 01:18:41;;;;;;;2.60;0.93;;;9.80;99.90;;;;;;5021313;28;20727;-83
2021/10/06 01:21:29;;;;;;;2.53;1.37;;;9.90;99.90;;;;;;5025492;28;20762;-83
2021/10/06 01:24:16;;;;;;;1.47;1.20;;;9.90;99.90;;;;;;5016888;28;21015;-83
2021/10/06 01:27:01;;;;;;;2.57;1.00;;;9.90;99.90;;;;;;5018965;28;20636;-83
2021/10/06 01:29:48;;;;;;;1.23;1.10;;;9.90;99.90;;;;;;5017751;28;20624;-84
2021/10/06 01:32:36;;;;;;;3.40;1.47;;;10.00;99.90;;;;;;5007052;28;21157;-84
2021/10/06 01:35:17;;;;;;;1.80;1.57;;;9.90;99.90;;;;;;5089998;27;20964;-84
2021/10/06 01:38:05;;;;;;;1.27;1.17;;;10.00;99.90;;;;;;5025831;28;20618;-84
2021/10/06 01:40:40;;;;;;;1.97;1.37;;;10.10;99.90;;;;;;5014178;28;20672;-83
2021/10/06 01:43:27;;;;;;;5.60;1.47;;;10.10;99.90;;;;;;5017235;28;20623;-83
2021/10/06 01:46:14;;;;;;;4.77;1.43;;;9.90;99.90;;;;;;5020554;28;20724;-83
2021/10/06 01:48:54;;;;;;;2.97;1.07;;;9.80;99.90;;;;;;5014035;28;20818;-84
2021/10/06 01:51:33;;;;;;;1.20;1.00;;;9.80;99.90;;;;;;5027685;28;20642;-84
2021/10/06 01:54:21;;;;;;;1.93;1.30;;;9.90;99.90;;;;;;5016199;28;20723;-84
2021/10/06 01:57:01;;;;;;;2.47;1.60;;;10.00;99.90;;;;;;5008439;28;20729;-83
2021/10/06 01:59:49;;;;;;;1.63;1.10;;;9.90;99.90;;;;;;5021099;28;20659;-83
2021/10/06 02:02:32;;;;;;;3.33;0.83;;;9.70;99.90;;;;;;5013370;28;20655;-84
2021/10/06 02:05:20;;;;;;;1.53;1.03;;;9.60;99.90;;;;;;5027560;27;20676;-84
2021/10/06 02:08:08;;;;;;;1.90;1.40;;;9.70;99.90;;;;;;5017031;28;21211;-84
2021/10/06 02:10:57;;;;;;;0.80;0.80;;;9.70;99.90;;;;;;5013091;28;20620;-84
2021/10/06 02:13:44;;;;;;;1.30;1.10;;;9.50;99.90;;;;;;5016048;28;20637;-83
2021/10/06 02:16:31;;;;;;;1.23;1.10;;;9.50;99.90;;;;;;5010727;28;20735;-84
2021/10/06 02:19:14;;;;;;;2.17;1.23;;;9.60;99.90;;;;;;5028015;28;21036;-83
2021/10/06 02:22:01;;;;;;;1.93;1.23;;;9.50;99.90;;;;;;5026037;28;20703;-84
2021/10/06 02:24:38;;;;;;;2.53;0.90;;;9.50;99.90;;;;;;5026231;28;20634;-83
2021/10/06 02:27:27;;;;;;;2.70;1.37;;;9.70;99.90;;;;;;5027160;28;20634;-84
2021/10/06 02:29:59;;;;;;;1.97;1.10;;;9.80;99.90;;;;;;5027578;28;20659;-83
2021/10/06 02:32:44;;;;;;;1.57;0.97;;;9.80;99.90;;;;;;5016284;28;20652;-84
2021/10/06 02:35:25;;;;;;;3.20;1.33;;;9.60;99.90;;;;;;5096455;27;20627;-84
2021/10/06 02:37:56;;;;;;;1.60;1.20;;;9.70;99.90;;;;;;5081901;27;20998;-85
2021/10/06 02:40:43;;;;;;;1.67;1.30;;;9.80;99.90;;;;;;5027543;28;20659;-84
2021/10/06 02:43:31;;;;;;;1.57;1.47;;;9.70;99.90;;;;;;5026695;28;20734;-84
2021/10/06 02:46:09;;;;;;;1.67;1.30;;;9.50;99.90;;;;;;5027557;28;20730;-84
2021/10/06 02:48:48;;;;;;;2.17;1.63;;;9.40;99.90;;;;;;5027196;28;20739;-84
2021/10/06 02:51:22;;;;;;;1.50;1.40;;;9.50;99.90;;;;;;5025356;28;21232;-84
2021/10/06 02:54:09;;;;;;;2.00;1.77;;;9.30;99.90;;;;;;5006717;28;20612;-84
2021/10/06 02:56:47;;;;;;;1.23;1.13;;;9.30;99.90;;;;;;5014638;28;20676;-84
2021/10/06 02:59:35;;;;;;;1.60;1.27;;;9.30;99.90;;;;;;5018455;28;20723;-84
2021/10/06 03:02:15;;;;;;;2.50;1.40;;;9.40;99.90;;;;;;5004636;28;20771;-84
2021/10/06 03:04:58;;;;;;;3.50;1.40;;;9.20;99.90;;;;;;5007366;28;20677;-84
2021/10/06 03:07:45;;;;;;;1.67;1.57;;;9.20;99.90;;;;;;5005675;28;20724;-84
2021/10/06 03:10:20;;;;;;;2.73;1.60;;;9.10;99.90;;;;;;5007177;28;20639;-84
2021/10/06 03:13:01;;;;;;;2.70;1.30;;;9.30;99.90;;;;;;5019733;28;20659;-84
2021/10/06 03:15:44;;;;;;;5.60;1.60;;;9.30;99.90;;;;;;5017399;28;20624;-84
2021/10/06 03:18:28;;;;;;;3.37;1.53;;;9.40;99.90;;;;;;5006031;28;20671;-83
2021/10/06 03:21:01;;;;;;;2.13;1.70;;;9.40;99.90;;;;;;5013901;28;20722;-84
2021/10/06 03:23:48;;;;;;;3.17;1.70;;;9.40;99.90;;;;;;5000701;28;21098;-84
2021/10/06 03:26:35;;;;;;;2.50;1.53;;;9.40;99.90;;;;;;5005498;28;20623;-83
2021/10/06 03:29:16;;;;;;;2.70;1.83;;;9.40;99.90;;;;;;5022887;28;20733;-84
2021/10/06 03:32:04;;;;;;;4.73;1.80;;;9.50;99.90;;;;;;5019378;28;20616;-84
2021/10/06 03:34:49;;;;;;;1.70;1.60;;;9.40;99.90;;;;;;5037683;27;20707;-83
2021/10/06 03:37:22;;;;;;;1.80;1.40;;;9.40;99.90;;;;;;5012912;28;20742;-84
2021/10/06 03:40:03;;;;;;;1.70;1.13;;;9.40;99.90;;;;;;5024704;28;20672;-83
2021/10/06 03:42:46;;;;;;;1.50;1.40;;;9.40;99.90;;;;;;5028638;28;20678;-84
2021/10/06 03:45:33;;;;;;;2.00;1.40;;;9.40;99.90;;;;;;5016700;28;20620;-84
2021/10/06 03:48:21;;;;;;;5.30;1.60;;;9.30;99.90;;;;;;5024172;28;20643;-83
2021/10/06 03:51:08;;;;;;;2.93;1.40;;;9.40;99.90;;;;;;5012421;28;20635;-84
2021/10/06 03:53:55;;;;;;;1.30;1.20;;;9.30;99.90;;;;;;5009909;28;20612;-84
2021/10/06 03:56:38;;;;;;;3.17;1.50;;;9.40;99.90;;;;;;5011059;28;20678;-84
2021/10/06 03:59:19;;;;;;;1.80;1.70;;;9.30;99.90;;;;;;5027469;27;20695;-84
2021/10/06 04:02:06;;;;;;;2.47;1.80;;;9.30;99.90;;;;;;5021543;28;20674;-84
2021/10/06 04:04:54;;;;;;;3.17;2.03;;;9.30;99.90;;;;;;5007299;28;20747;-84
2021/10/06 04:07:41;;;;;;;2.03;1.60;;;9.30;99.90;;;;;;5013381;28;21197;-84
2021/10/06 04:10:29;;;;;;;2.30;1.30;;;9.20;99.90;;;;;;5017466;28;20642;-84
2021/10/06 04:13:16;;;;;;;1.40;1.30;;;9.50;99.90;;;;;;5015845;28;20629;-84
2021/10/06 04:15:59;;;;;;;1.43;1.33;;;9.20;99.90;;;;;;5030838;27;20631;-83
2021/10/06 04:18:40;;;;;;;1.83;1.57;;;9.30;99.90;;;;;;5005247;28;20692;-83
2021/10/06 04:21:28;;;;;;;2.13;1.20;;;9.20;99.90;;;;;;5006081;28;20775;-84
2021/10/06 04:24:01;;;;;;;6.50;1.90;;;9.20;99.90;;;;;;5009336;28;20656;-84
2021/10/06 04:26:48;;;;;;;1.77;1.67;;;9.20;99.90;;;;;;5012264;28;20623;-84
2021/10/06 04:29:33;;;;;;;1.47;1.00;;;9.20;99.90;;;;;;5011274;28;21105;-84
2021/10/06 04:32:20;;;;;;;1.27;1.17;;;9.20;99.90;;;;;;5011480;28;20969;-84
2021/10/06 04:35:02;;;;;;;1.20;0.90;;;9.00;99.90;;;;;;5077543;27;20632;-84
2021/10/06 04:37:36;;;;;;;2.90;1.20;;;10.00;99.90;;;;;;5102319;27;21285;-84
2021/10/06 04:40:19;;;;;;;5.07;1.40;;;9.20;99.90;;;;;;5015470;28;20663;-84
2021/10/06 04:42:52;;;;;;;1.90;0.90;;;9.20;99.90;;;;;;5030193;28;20760;-84
2021/10/06 04:45:30;;;;;;;2.40;1.43;;;9.30;99.90;;;;;;5026774;28;20631;-84
2021/10/06 04:48:15;;;;;;;2.70;1.30;;;9.30;99.90;;;;;;5026767;28;20619;-84
2021/10/06 04:51:02;;;;;;;1.30;1.20;;;9.20;99.90;;;;;;5027366;28;20620;-85
2021/10/06 04:53:42;;;;;;;2.10;1.57;;;9.40;99.90;;;;;;5027721;28;20659;-84
2021/10/06 04:56:29;;;;;;;5.17;1.17;;;9.40;99.90;;;;;;5124301;27;20623;-83
2021/10/06 04:59:09;;;;;;;1.20;1.10;;;9.30;99.90;;;;;;5133224;27;20638;-84
2021/10/06 05:01:55;;;;;;;1.20;1.10;;;9.20;99.90;;;;;;5017182;28;20712;-84
2021/10/06 05:04:41;;;;;;;3.63;1.63;;;9.00;99.90;;;;;;5025220;27;20618;-84
2021/10/06 05:07:20;;;;;;;1.50;1.40;;;9.10;99.90;;;;;;5011731;28;20647;-83
2021/10/06 05:09:55;;;;;;;1.43;1.23;;;9.20;99.90;;;;;;5057532;27;21048;-84
2021/10/06 05:12:41;;;;;;;1.70;1.60;;;9.30;99.90;;;;;;5032464;28;20623;-84
2021/10/06 05:15:23;;;;;;;7.33;1.40;;;9.40;99.90;;;;;;5013875;28;20639;-84
2021/10/06 05:17:59;;;;;;;2.10;1.10;;;9.40;99.90;;;;;;5006745;28;21571;-85
2021/10/06 05:20:42;;;;;;;1.60;1.20;;;9.40;99.90;;;;;;5009682;28;20629;-84
2021/10/06 05:23:28;;;;;;;2.73;1.77;;;9.40;99.90;;;;;;5007568;28;20958;-84
2021/10/06 05:26:11;;;;;;;3.67;1.40;;;9.40;99.90;;;;;;5010660;28;20646;-84
2021/10/06 05:28:53;;;;;;;4.10;1.53;;;9.50;99.90;;;;;;5033162;28;20669;-84
2021/10/06 05:31:41;;;;;;;1.47;1.37;;;9.60;99.90;;;;;;5085037;27;20624;-84
2021/10/06 05:34:21;;;;;;;3.03;1.00;;;9.50;99.90;;;;;;5058863;27;20734;-84
2021/10/06 05:37:08;;;;;;;2.23;1.30;;;9.50;99.90;;;;;;5026983;27;20719;-83
2021/10/06 05:39:41;;;;;;;1.40;1.30;;;9.60;99.90;;;;;;5014328;27;20706;-84
2021/10/06 05:42:19;;;;;;;2.30;1.40;;;9.60;99.90;;;;;;5011715;27;20768;-84
2021/10/06 05:45:05;;;;;;;1.30;1.20;;;9.60;99.90;;;;;;5028400;28;20642;-84
2021/10/06 05:47:50;;;;;;;1.40;1.30;;;9.60;99.90;;;;;;5021130;28;21041;-84
2021/10/06 05:50:37;;;;;;;3.50;1.20;;;9.60;99.90;;;;;;5013880;28;20667;-84
2021/10/06 05:53:15;;;;;;;1.20;1.20;;;9.70;99.90;;;;;;5007761;28;20644;-83
2021/10/06 05:56:02;;;;;;;2.77;1.47;;;9.70;99.90;;;;;;5012214;28;20707;-83
2021/10/06 05:58:51;;;;;;;2.77;1.47;;;9.80;99.90;;;;;;5064801;27;20662;-83
2021/10/06 06:01:38;;;;;;;1.50;1.20;;;9.70;99.90;;;;;;5026553;28;20636;-83
2021/10/06 06:04:25;;;;;;;1.20;1.03;;;9.70;99.90;;;;;;5023370;28;20723;-84
2021/10/06 06:07:05;;;;;;;3.00;1.37;;;9.70;99.90;;;;;;5026458;28;20630;-83
2021/10/06 06:09:47;;;;;;;1.83;1.20;;;8.70;99.90;;;;;;5017792;28;20635;-84
2021/10/06 06:12:31;;;;;;;2.20;1.60;;;9.70;99.90;;;;;;5008011;28;20706;-84
2021/10/06 06:15:14;;;;;;;1.93;1.67;;;9.70;99.90;;;;;;5008027;28;20628;-84
2021/10/06 06:18:01;;;;;;;3.00;1.60;;;9.80;99.90;;;;;;5086137;28;20751;-84
2021/10/06 06:20:48;;;;;;;3.33;1.43;;;9.80;99.90;;;;;;5064084;27;20612;-83
2021/10/06 06:23:26;;;;;;;2.63;1.33;;;9.70;99.90;;;;;;5046744;28;21289;-84
2021/10/06 06:26:09;;;;;;;2.20;1.60;;;9.60;99.90;;;;;;5029605;27;20734;-84
2021/10/06 06:28:45;;;;;;;2.17;1.67;;;9.60;99.90;;;;;;5089613;28;20656;-84
2021/10/06 06:31:31;;;;;;;1.90;1.43;;;9.50;99.90;;;;;;5008239;28;20624;-84
2021/10/06 06:34:15;;;;;;;1.70;1.60;;;9.50;99.90;;;;;;5048639;27;21232;-84
2021/10/06 06:36:58;;;;;;;1.50;1.40;;;9.40;99.90;;;;;;5040998;27;20649;-84
2021/10/06 06:39:36;;;;;;;2.60;2.13;;;9.30;99.90;;;;;;5016103;28;20624;-85
2021/10/06 06:42:15;;;;;;;3.00;1.83;;;9.50;99.90;;;;;;5011751;28;20681;-85
2021/10/06 06:44:54;;;;;;;1.70;1.60;;;9.50;99.90;;;;;;5015561;28;20620;-85
2021/10/06 06:47:29;;;;;;;2.20;1.83;;;9.60;99.90;;;;;;5014633;28;20619;-84
2021/10/06 06:50:19;;;;;;;2.03;1.67;;;10.00;99.90;;;;;;5008929;28;20619;-85
2021/10/06 06:52:56;;;;;;;1.50;1.40;;;10.10;99.90;;;;;;5011131;28;21103;-84
2021/10/06 06:55:38;;;;;;;1.20;1.20;;;9.70;99.90;;;;;;5013873;28;20636;-84
2021/10/06 06:58:15;;;;;;;2.70;1.80;;;9.80;99.90;;;;;;5017615;28;21300;-84
2021/10/06 07:00:45;;;;;;;1.73;1.63;;;9.80;99.90;;;;;;5011236;28;20646;-85
2021/10/06 07:03:33;;;;;;;2.57;1.93;;;9.80;99.90;;;;;;5013210;28;20663;-84
2021/10/06 07:06:11;;;;;;;7.43;2.07;;;9.90;99.90;;;;;;5018252;28;20631;-84
2021/10/06 07:08:54;;;;;;;9.60;3.60;;;9.90;99.90;;;;;;5020244;28;21265;-85
2021/10/06 07:11:38;;;;;;;142.87;19.60;;;10.30;99.90;;;;;;5017041;28;20638;-84
2021/10/06 07:14:25;;;;;;;54.00;12.50;;;10.30;99.90;;;;;;5018580;28;21161;-84
2021/10/06 07:17:12;;;;;;;48.17;10.40;;;10.40;99.90;;;;;;5021143;28;20727;-85
2021/10/06 07:19:57;;;;;;;1.87;1.70;;;10.40;99.90;;;;;;5021076;28;21329;-84
2021/10/06 07:22:46;;;;;;;1.87;1.10;;;10.50;99.90;;;;;;5017890;27;20679;-86
2021/10/06 07:25:33;;;;;;;3.63;1.67;;;10.60;99.90;;;;;;5021231;28;20620;-85
2021/10/06 07:28:05;;;;;;;2.50;1.30;;;10.60;99.90;;;;;;5009805;27;20690;-84
2021/10/06 07:30:53;;;;;;;1.20;1.20;;;10.80;99.90;;;;;;5019522;28;20656;-84
2021/10/06 07:33:25;;;;;;;1.27;1.00;;;10.90;99.90;;;;;;5031048;27;20628;-86
2021/10/06 07:36:12;;;;;;;4.87;1.77;;;10.80;99.90;;;;;;5022012;28;20626;-85
2021/10/06 07:38:45;;;;;;;3.40;1.50;;;10.80;99.90;;;;;;5020841;28;20642;-84
2021/10/06 07:41:32;;;;;;;1.70;1.20;;;10.90;99.90;;;;;;5020142;27;21137;-84
2021/10/06 07:44:10;;;;;;;4.13;1.53;;;10.90;99.90;;;;;;5026764;28;20608;-85
2021/10/06 07:46:54;;;;;;;1.57;1.47;;;10.80;99.90;;;;;;5032105;28;20991;-85
2021/10/06 07:49:42;;;;;;;3.30;1.33;;;10.80;99.90;;;;;;5025390;28;20659;-85
2021/10/06 07:52:15;;;;;;;3.10;1.50;;;10.90;99.90;;;;;;5012584;28;20616;-85
2021/10/06 07:54:49;;;;;;;1.90;1.17;;;10.80;99.90;;;;;;5016992;27;20658;-84
2021/10/06 07:57:36;;;;;;;1.30;1.20;;;11.00;99.90;;;;;;5010829;28;20669;-85
2021/10/06 08:00:12;;;;;;;2.97;1.63;;;11.10;99.90;;;;;;5023202;28;21063;-85
2021/10/06 08:02:52;;;;;;;2.60;1.03;;;11.20;99.90;;;;;;5030029;28;21081;-86
2021/10/06 08:05:32;;;;;;;1.10;1.00;;;11.30;99.90;;;;;;5027720;28;20757;-86
2021/10/06 08:08:07;;;;;;;2.23;1.33;;;11.40;99.90;;;;;;5018898;27;20660;-85
2021/10/06 08:10:44;;;;;;;1.43;1.10;;;11.40;99.90;;;;;;5020220;27;20631;-85
2021/10/06 08:13:32;;;;;;;1.23;1.13;;;11.50;99.90;;;;;;5010406;27;20680;-85
2021/10/06 08:16:53;;;;;;;1.80;1.13;;;11.70;99.90;;;;;;5010284;28;21231;-86
2021/10/06 08:19:40;;;;;;;3.37;1.30;;;11.80;99.90;;;;;;5018278;28;20636;-85
2021/10/06 08:22:27;;;;;;;2.37;1.40;;;11.90;99.90;;;;;;5017813;28;20660;-85
2021/10/06 08:25:09;;;;;;;2.73;1.37;;;12.00;99.90;;;;;;5016342;28;21210;-84
2021/10/06 08:27:54;;;;;;;6.07;1.40;;;12.30;99.90;;;;;;5011300;28;20662;-85
2021/10/06 08:30:32;;;;;;;1.30;1.00;;;12.60;98.90;;;;;;5017525;28;20983;-85
2021/10/06 08:33:09;;;;;;;5.60;0.97;;;12.80;99.10;;;;;;5018124;27;20701;-83
2021/10/06 08:35:55;;;;;;;2.10;0.83;;;13.00;97.90;;;;;;5012387;28;20620;-86
2021/10/06 08:38:31;;;;;;;2.43;1.17;;;13.00;97.60;;;;;;5008074;28;21051;-84
2021/10/06 08:41:19;;;;;;;1.83;1.37;;;12.80;96.70;;;;;;5007597;28;20679;-85
2021/10/06 08:43:56;;;;;;;1.10;0.97;;;12.40;98.60;;;;;;5019210;28;20668;-85
2021/10/06 08:46:43;;;;;;;5.60;1.23;;;12.10;98.50;;;;;;5017616;28;21239;-85
2021/10/06 08:49:31;;;;;;;2.17;1.33;;;12.10;98.70;;;;;;5017850;28;20717;-85
2021/10/06 08:52:18;;;;;;;2.10;1.00;;;12.10;98.70;;;;;;5009694;28;20624;-85
2021/10/06 08:54:52;;;;;;;2.70;1.20;;;12.10;98.70;;;;;;5026681;28;20738;-86
2021/10/06 08:57:40;;;;;;;3.90;1.30;;;12.00;98.70;;;;;;5007113;28;20638;-85
2021/10/06 09:00:15;;;;;;;2.10;1.13;;;12.00;99.00;;;;;;5018467;28;20629;-87
2021/10/06 09:03:08;;;;;;;3.57;1.30;;;11.90;99.00;;;;;;5020238;28;20671;-85
2021/10/06 09:06:00;;;;;;;3.27;1.93;;;11.80;99.10;;;;;;5022705;28;20687;-86
2021/10/06 09:08:46;;;;;;;1.13;1.13;;;12.20;98.90;;;;;;5026269;28;20773;-86
2021/10/06 09:11:31;;;;;;;1.50;1.30;;;12.40;98.70;;;;;;5016901;28;20614;-87
2021/10/06 09:14:16;;;;;;;5.20;1.00;;;12.70;98.20;;;;;;5015031;28;20629;-86
2021/10/06 09:17:08;;;;;;;1.90;1.20;;;12.60;97.50;;;;;;5012926;28;21101;-86
2021/10/06 09:19:53;;;;;;;3.73;1.20;;;12.60;98.20;;;;;;5014679;28;20631;-86
2021/10/06 09:22:37;;;;;;;4.40;1.80;;;12.60;98.20;;;;;;5013309;28;20673;-86
2021/10/06 09:25:43;;;;;;;3.60;1.17;;;12.60;98.50;;;;;;5016556;28;21010;-87
2021/10/06 09:28:30;;;;;;;3.50;1.60;;;12.70;98.20;;;;;;5010166;28;21067;-87
2021/10/06 09:31:21;;;;;;;1.07;0.87;;;12.30;98.70;;;;;;5013480;28;21045;-86
2021/10/06 09:34:09;;;;;;;9.00;1.70;;;12.60;96.60;;;;;;5016872;28;21294;-87
2021/10/06 09:36:52;;;;;;;0.90;0.80;;;12.70;97.80;;;;;;5007713;28;20734;-87
2021/10/06 09:39:35;;;;;;;1.93;1.77;;;12.70;97.70;;;;;;5015631;28;20617;-87
2021/10/06 09:42:14;;;;;;;2.70;1.10;;;12.80;98.00;;;;;;5002959;28;21023;-86
2021/10/06 09:45:01;;;;;;;3.17;1.30;;;12.80;95.60;;;;;;5017918;28;20730;-86
2021/10/06 09:47:38;;;;;;;1.53;0.90;;;12.90;95.60;;;;;;5018184;28;20632;-85
2021/10/06 09:50:25;;;;;;;2.57;0.63;;;12.90;95.50;;;;;;5018423;28;20671;-87
2021/10/06 09:53:13;;;;;;;4.33;1.00;;;12.90;95.40;;;;;;5016991;28;21064;-87
2021/10/06 09:56:05;;;;;;;6.43;1.43;;;13.00;94.40;;;;;;5016735;28;20631;-87
2021/10/06 09:58:40;;;;;;;3.80;1.00;;;13.20;93.90;;;;;;5015378;27;21192;-86
2021/10/06 10:01:28;;;;;;;4.70;1.73;;;13.20;93.70;;;;;;5009377;28;20639;-86
2021/10/06 10:04:16;;;;;;;1.63;1.20;;;13.10;93.80;;;;;;5015924;28;20775;-86
2021/10/06 10:06:54;;;;;;;3.27;1.17;;;13.00;94.70;;;;;;5034645;28;20641;-86
2021/10/06 10:09:41;;;;;;;1.83;1.03;;;13.00;94.70;;;;;;5020818;28;20984;-86
2021/10/06 10:12:25;;;;;;;1.23;0.80;;;12.90;95.30;;;;;;5013468;28;20620;-86
2021/10/06 10:15:02;;;;;;;3.27;1.47;;;12.90;95.90;;;;;;5006447;28;20627;-86
2021/10/06 10:17:40;;;;;;;1.60;1.17;;;12.80;94.70;;;;;;5017953;28;20625;-85
2021/10/06 10:20:21;;;;;;;2.40;1.27;;;12.90;95.20;;;;;;4997066;28;20647;-89
2021/10/06 10:23:12;;;;;;;2.87;1.03;;;13.00;95.30;;;;;;5018170;28;20758;-86
2021/10/06 10:25:59;;;;;;;1.00;1.00;;;12.90;94.80;;;;;;5020540;28;21050;-85
2021/10/06 10:28:40;;;;;;;2.13;1.00;;;13.00;96.20;;;;;;5057485;27;20625;-86
2021/10/06 10:31:28;;;;;;;1.77;0.93;;;12.90;95.60;;;;;;5081456;27;20631;-87
2021/10/06 10:34:16;;;;;;;1.40;1.30;;;13.00;94.30;;;;;;5019349;28;20635;-86
2021/10/06 10:36:56;;;;;;;3.00;1.07;;;13.00;93.50;;;;;;5005994;28;20731;-86
2021/10/06 10:39:58;;;;;;;2.10;1.27;;;13.20;94.50;;;;;;5025846;28;20635;-86
2021/10/06 10:42:58;;;;;;;1.30;0.83;;;13.40;94.50;;;;;;5092493;27;20630;-86
2021/10/06 10:45:51;;;;;;;1.20;0.90;;;13.50;94.20;;;;;;5019796;28;21252;-86
2021/10/06 10:49:04;;;;;;;0.60;0.60;;;13.50;93.80;;;;;;5096666;27;20655;-86
2021/10/06 10:51:49;;;;;;;0.73;0.73;;;13.20;95.30;;;;;;5026839;28;20646;-87
2021/10/06 10:54:39;;;;;;;0.80;0.70;;;13.10;96.20;;;;;;5019968;28;20662;-85
2021/10/06 10:57:21;;;;;;;1.43;1.33;;;13.00;95.60;;;;;;5025869;28;20649;-87
2021/10/06 11:00:03;;;;;;;1.80;1.50;;;13.20;96.50;;;;;;5025480;28;20955;-86
2021/10/06 11:02:50;;;;;;;0.90;0.90;;;13.40;96.20;;;;;;5017213;28;20626;-87
2021/10/06 11:05:46;;;;;;;5.50;1.10;;;13.30;95.40;;;;;;5025520;28;20620;-86
2021/10/06 11:08:24;;;;;;;6.83;1.07;;;13.30;96.00;;;;;;5019537;28;20650;-86
2021/10/06 11:11:31;;;;;;;1.47;0.77;;;13.20;95.50;;;;;;5025802;28;20618;-86
2021/10/06 11:14:22;;;;;;;2.00;0.80;;;13.00;96.20;;;;;;5025634;28;20707;-85
2021/10/06 11:17:10;;;;;;;4.27;1.10;;;12.90;95.40;;;;;;5028366;28;20616;-86
2021/10/06 11:19:57;;;;;;;3.77;1.30;;;12.90;96.20;;;;;;5077297;28;20612;-87
2021/10/06 11:22:44;;;;;;;2.00;1.80;;;13.00;95.60;;;;;;5019028;28;20727;-87
2021/10/06 11:25:41;;;;;;;1.90;1.10;;;13.30;95.80;;;;;;5001273;28;20705;-86
2021/10/06 11:28:21;;;;;;;4.63;1.30;;;13.40;93.70;;;;;;5015750;28;20619;-88
2021/10/06 11:31:09;;;;;;;1.20;1.00;;;13.60;93.80;;;;;;5026424;28;20630;-86
2021/10/06 11:33:57;;;;;;;2.73;1.33;;;13.90;91.70;;;;;;5078284;28;20719;-85
2021/10/06 11:36:55;;;;;;;2.00;1.03;;;14.10;92.20;;;;;;5005407;28;20740;-85
2021/10/06 11:39:42;;;;;;;2.40;1.10;;;14.10;91.90;;;;;;5006344;28;20707;-86
2021/10/06 11:42:32;;;;;;;0.60;0.60;;;14.00;92.00;;;;;;5000571;28;20659;-85
2021/10/06 11:45:19;;;;;;;1.13;0.80;;;13.90;90.50;;;;;;5007155;28;20620;-86
2021/10/06 11:48:11;;;;;;;0.83;0.80;;;13.90;90.50;;;;;;5025116;28;20673;-86
2021/10/06 11:50:55;;;;;;;1.60;0.93;;;14.00;91.30;;;;;;5025991;28;20634;-86
2021/10/06 11:53:45;;;;;;;1.27;0.70;;;14.00;90.90;;;;;;5028274;28;20746;-87
2021/10/06 11:56:32;;;;;;;0.80;0.80;;;14.00;91.40;;;;;;5028466;28;21367;-86
2021/10/06 11:59:20;;;;;;;3.10;0.90;;;14.10;90.60;;;;;;5026761;28;20647;-85
2021/10/06 12:02:10;;;;;;;0.80;0.77;;;14.10;90.40;;;;;;5028320;28;20796;-86
2021/10/06 12:04:58;;;;;;;3.43;0.93;;;14.00;90.00;;;;;;5007322;28;20683;-86
2021/10/06 12:07:41;;;;;;;2.03;1.23;;;14.00;88.80;;;;;;5009459;28;20637;-85
2021/10/06 12:10:28;;;;;;;1.07;0.70;;;14.00;88.40;;;;;;5028809;28;20648;-87
2021/10/06 12:13:31;;;;;;;0.97;0.60;;;14.00;88.70;;;;;;5029852;28;20737;-87
2021/10/06 12:16:27;;;;;;;1.33;0.90;;;14.10;90.30;;;;;;5023311;28;20623;-86
2021/10/06 12:19:22;;;;;;;4.80;2.63;;;14.00;91.60;;;;;;5020003;28;21037;-86
2021/10/06 12:22:09;;;;;;;3.33;1.07;;;13.80;93.40;;;;;;5020296;28;20651;-86
2021/10/06 12:24:57;;;;;;;2.20;0.80;;;13.40;95.20;;;;;;5004471;28;20663;-86
2021/10/06 12:27:39;;;;;;;1.13;1.03;;;12.90;98.50;;;;;;5020783;28;21435;-86
2021/10/06 12:30:42;;;;;;;1.10;0.57;;;12.50;99.00;;;;;;5016780;28;20638;-85
2021/10/06 12:33:27;;;;;;;2.60;1.70;;;12.30;99.50;;;;;;5020473;28;20646;-86
2021/10/06 12:36:20;;;;;;;1.10;1.00;;;12.40;99.90;;;;;;5015398;28;20630;-85
2021/10/06 12:39:25;;;;;;;5.70;1.37;;;12.50;99.70;;;;;;5027297;28;20644;-86
2021/10/06 12:42:06;;;;;;;1.20;1.07;;;12.90;99.80;;;;;;5018524;28;20627;-85
2021/10/06 12:44:45;;;;;;;2.63;1.60;;;12.90;98.70;;;;;;5009945;28;20789;-85
2021/10/06 12:47:32;;;;;;;1.30;1.00;;;12.90;98.70;;;;;;5006099;28;20867;-86
2021/10/06 12:50:10;;;;;;;2.67;1.07;;;13.10;97.30;;;;;;5018232;28;20675;-86
2021/10/06 12:52:48;;;;;;;5.00;1.20;;;13.20;97.70;;;;;;5017413;28;20974;-87
2021/10/06 12:55:34;;;;;;;1.50;0.93;;;13.30;96.90;;;;;;5008128;28;20724;-86
2021/10/06 12:58:16;;;;;;;1.90;1.10;;;13.30;95.70;;;;;;5016296;28;20935;-86
2021/10/06 13:00:52;;;;;;;0.90;0.80;;;13.30;94.90;;;;;;5016437;28;20689;-87
2021/10/06 13:03:33;;;;;;;1.50;1.00;;;13.40;94.70;;;;;;5010787;28;20665;-86
2021/10/06 13:06:10;;;;;;;1.67;0.97;;;13.30;95.30;;;;;;5024867;28;20634;-86
2021/10/06 13:08:50;;;;;;;1.43;1.07;;;13.50;95.90;;;;;;5018009;28;20631;-85
2021/10/06 13:11:25;;;;;;;2.40;1.30;;;13.50;95.20;;;;;;5027383;28;20634;-86
2021/10/06 13:14:08;;;;;;;2.43;1.20;;;13.70;94.70;;;;;;5020055;28;20642;-85
2021/10/06 13:16:43;;;;;;;0.83;0.83;;;13.70;93.00;;;;;;5016153;28;20626;-87
2021/10/06 13:19:25;;;;;;;3.73;0.70;;;12.90;93.60;;;;;;5022195;28;20646;-86
2021/10/06 13:22:01;;;;;;;1.87;0.70;;;13.60;92.90;;;;;;5018714;28;20631;-86
2021/10/06 13:24:40;;;;;;;3.17;1.23;;;13.40;92.30;;;;;;5007513;28;20670;-86
2021/10/06 13:27:26;;;;;;;1.93;1.00;;;13.30;93.00;;;;;;5033421;27;20666;-86
2021/10/06 13:30:07;;;;;;;3.80;1.20;;;13.50;94.20;;;;;;5024007;27;20660;-86
2021/10/06 13:32:54;;;;;;;1.97;0.80;;;13.50;93.40;;;;;;5018898;28;20735;-87
2021/10/06 13:35:39;;;;;;;2.50;1.10;;;13.50;94.30;;;;;;5016835;28;20700;-87
2021/10/06 13:38:26;;;;;;;3.30;1.57;;;13.50;94.00;;;;;;5014549;28;20623;-85
2021/10/06 13:41:07;;;;;;;4.03;3.40;;;13.60;93.30;;;;;;5007881;28;20639;-88
2021/10/06 13:43:49;;;;;;;3.83;2.67;;;13.70;93.10;;;;;;5017736;28;20663;-87
2021/10/06 13:46:21;;;;;;;9.33;1.70;;;13.90;93.70;;;;;;5015300;28;20705;-86
2021/10/06 13:49:01;;;;;;;1.33;1.10;;;13.90;92.10;;;;;;5016874;28;20748;-88
2021/10/06 13:51:38;;;;;;;1.00;0.90;;;14.10;92.50;;;;;;5009516;28;20703;-87
2021/10/06 13:54:14;;;;;;;2.07;1.13;;;14.20;93.40;;;;;;5015397;28;20649;-88
2021/10/06 13:56:53;;;;;;;0.83;0.83;;;14.10;92.10;;;;;;5017065;28;21353;-88
2021/10/06 13:59:31;;;;;;;1.93;0.80;;;14.40;92.30;;;;;;5015780;28;20643;-87
2021/10/06 14:02:07;;;;;;;1.50;0.70;;;14.60;91.50;;;;;;5016467;28;20655;-86
2021/10/06 14:04:43;;;;;;;1.80;1.20;;;14.50;87.50;;;;;;5015595;28;21129;-87
2021/10/06 14:07:24;;;;;;;0.83;0.60;;;14.50;90.10;;;;;;5011100;28;20640;-88
2021/10/06 14:10:09;;;;;;;1.80;0.90;;;14.40;87.90;;;;;;5017961;28;20722;-88
2021/10/06 14:12:52;;;;;;;1.93;1.10;;;14.30;88.30;;;;;;5017339;28;20766;-86
2021/10/06 14:15:33;;;;;;;0.80;0.80;;;14.20;89.90;;;;;;5015848;28;20657;-87
2021/10/06 14:18:09;;;;;;;1.93;1.23;;;14.20;89.70;;;;;;5013083;28;20624;-87